Needmore, PA (17238)

9:10 PM EDT on March 30, 2015 (GMT -0400)
Cito | | Change Station
CLOSE
Current Station
Personal Weather Station
Location: McConnellsburg, PA
Elevation: 889 ft
Nearby Weather Stations

Elev 889 ft 39.88 °N, 78.02 °W | Updated 0 second ago

Overcast
Overcast
47.8 °F
Feels Like 47 °F
N
3.1
Wind Variable Wind from South
Gusts 4.5 mph

Today
High -- | Low -- °F
--% Chance of Precip.
Yesterday
High -- | Low -- °F
Precip. -- in
7:00 AM 7:34 PM
Waxing Gibbous, 83% visible
Pressure 29.92 in
Visibility 10.0 miles
Clouds Overcast 9500 ft
Windchill 47 °F
Dew Point -6 °F
Humidity 10%
Rainfall 0.00 in
Snow Depth Not available.
UV 0 out of 12
Pollen 11.10 out of 12
Air Quality Not available.
Flu Activity Not available.
METAR KHMZ 310055Z AUTO 26004KT 10SM OVC095 08/M07 A2992 RMK AO2 T00821072

More Conditions Fewer Conditions

Pressure 29.92 in
Visibility 10.0 miles
Clouds Overcast 9500 ft
Windchill 47 °F
Dew Point -6 °F
Humidity 10%
Rainfall 0.00 in
Snow Depth Not available.
UV 0 out of 12
Pollen 11.10 out of 12
Air Quality Not available.
Flu Activity Not available.
METAR KHMZ 310055Z AUTO 26004KT 10SM OVC095 08/M07 A2992 RMK AO2 T00821072

More Conditions Fewer Conditions

10-Day Weather Forecast

Almanac

Astronomy

Mar. 30, 2015 Rise Set
Actual Time
Civil Twilight
Nautical Twilight
Astronomical Twilight
Moon
Length of Visible Light
Length of Day
Tomorrow will be .
, % of the Moon is Illuminated

Today's Extremes

State Highs State Lows

Community

WunderPhotos

Upload Photos

1,809,647 photos uploaded!

WunderBlogs® & News

Nearby

Air Quality

  Air Quality AQ Index Pollutant
Not available.

Snow Depth

Station Depth Elevation

Earthquake Activity

City Distance Mag. Time & Date
Minimum magnitude displayed is 2.5.

Coastal Water Temperatures

Place Temperature

Stations

Nearby Weather Stations

Station Location Temp. Windchill Dew Point Humidity Wind Precip. Elev Updated Type